JSR weather

Public forecast

Using degrees Celsius for public forecast. Weather courtesy of forecast.io.

Closest aviation weather report (METAR) to Jessore Airport

Closest report is Netaji Subhash Chandra Bose International Airport, 50.7 nm (93.9 km) SW. Retrieved 2020/08/10 14:30 UTC (17 minutes ago):

VECC 101430Z 15005KT 3500 HZ SCT018 SCT100 31/29 Q0999 NOSIG

Closest aviation forecast (TAF) to Jessore Airport

Closest forecast is Netaji Subhash Chandra Bose International Airport, 50.7 nm (93.9 km) SW. Retrieved 2020/08/10 12:48 UTC (2 hours ago):

TAF VECC 101100Z 1012/1118 14006KT 3500 -RA HZ SCT018 BKN100 BECMG 1023/1101 00000KT 2800 -RA HZ BECMG 1103/1105 16006KT 3500 -RA HZ TEMPO 1106/1110 2000 TSRA SCT015 FEW025CB OVC090